sensor_id;sensor_type;location;lat;lon;timestamp;temperature;humidity
3300;DHT22;1662;49.310;8.134;2023-08-20T00:00:01;25.20;99.90
3300;DHT22;1662;49.310;8.134;2023-08-20T00:02:32;25.20;99.90
3300;DHT22;1662;49.310;8.134;2023-08-20T00:04:58;25.20;99.90
3300;DHT22;1662;49.310;8.134;2023-08-20T00:07:24;25.20;99.90
3300;DHT22;1662;49.310;8.134;2023-08-20T00:09:53;25.20;99.90
3300;DHT22;1662;49.310;8.134;2023-08-20T00:12:18;25.20;99.90
3300;DHT22;1662;49.310;8.134;2023-08-20T00:14:57;25.20;99.90
3300;DHT22;1662;49.310;8.134;2023-08-20T00:17:33;25.20;99.90
3300;DHT22;1662;49.310;8.134;2023-08-20T00:19:59;25.10;99.90
3300;DHT22;1662;49.310;8.134;2023-08-20T00:22:26;25.10;99.90
3300;DHT22;1662;49.310;8.134;2023-08-20T00:24:55;25.10;99.90
3300;DHT22;1662;49.310;8.134;2023-08-20T00:27:21;25.10;99.90
3300;DHT22;1662;49.310;8.134;2023-08-20T00:29:49;25.10;99.90
3300;DHT22;1662;49.310;8.134;2023-08-20T00:32:15;25.10;99.90
3300;DHT22;1662;49.310;8.134;2023-08-20T00:34:40;25.00;99.90
3300;DHT22;1662;49.310;8.134;2023-08-20T00:37:07;25.00;99.90
3300;DHT22;1662;49.310;8.134;2023-08-20T00:39:32;24.90;99.90
3300;DHT22;1662;49.310;8.134;2023-08-20T00:41:58;25.00;99.90
3300;DHT22;1662;49.310;8.134;2023-08-20T00:44:23;25.00;99.90
3300;DHT22;1662;49.310;8.134;2023-08-20T00:46:50;25.00;99.90
3300;DHT22;1662;49.310;8.134;2023-08-20T00:49:16;25.10;99.90
3300;DHT22;1662;49.310;8.134;2023-08-20T00:51:42;25.10;99.90
3300;DHT22;1662;49.310;8.134;2023-08-20T00:54:08;25.10;99.90
3300;DHT22;1662;49.310;8.134;2023-08-20T00:56:35;25.00;99.90
3300;DHT22;1662;49.310;8.134;2023-08-20T00:59:04;25.00;99.90
3300;DHT22;1662;49.310;8.134;2023-08-20T01:01:30;25.00;99.90
3300;DHT22;1662;49.310;8.134;2023-08-20T01:03:56;25.00;99.90
3300;DHT22;1662;49.310;8.134;2023-08-20T01:06:23;25.00;99.90
3300;DHT22;1662;49.310;8.134;2023-08-20T01:09:19;25.00;99.90
3300;DHT22;1662;49.310;8.134;2023-08-20T01:11:52;25.00;99.90
3300;DHT22;1662;49.310;8.134;2023-08-20T01:14:23;25.00;99.90
3300;DHT22;1662;49.310;8.134;2023-08-20T01:16:48;25.00;99.90
3300;DHT22;1662;49.310;8.134;2023-08-20T01:19:19;24.90;99.90
3300;DHT22;1662;49.310;8.134;2023-08-20T01:30:15;24.80;99.90
3300;DHT22;1662;49.310;8.134;2023-08-20T01:32:42;24.80;99.90
3300;DHT22;1662;49.310;8.134;2023-08-20T01:35:13;24.80;99.90
3300;DHT22;1662;49.310;8.134;2023-08-20T01:37:41;24.70;99.90
3300;DHT22;1662;49.310;8.134;2023-08-20T01:40:08;24.70;99.90
3300;DHT22;1662;49.310;8.134;2023-08-20T01:42:40;24.70;99.90
3300;DHT22;1662;49.310;8.134;2023-08-20T01:45:06;24.70;99.90
3300;DHT22;1662;49.310;8.134;2023-08-20T01:47:32;24.70;99.90
3300;DHT22;1662;49.310;8.134;2023-08-20T01:49:58;24.70;99.90
3300;DHT22;1662;49.310;8.134;2023-08-20T01:52:24;24.60;99.90
3300;DHT22;1662;49.310;8.134;2023-08-20T01:54:50;24.60;99.90
3300;DHT22;1662;49.310;8.134;2023-08-20T01:57:16;24.60;99.90
3300;DHT22;1662;49.310;8.134;2023-08-20T01:59:42;24.50;99.90
3300;DHT22;1662;49.310;8.134;2023-08-20T02:02:07;24.50;99.90
3300;DHT22;1662;49.310;8.134;2023-08-20T02:04:33;24.50;99.90
3300;DHT22;1662;49.310;8.134;2023-08-20T02:06:59;24.40;99.90
3300;DHT22;1662;49.310;8.134;2023-08-20T02:09:25;24.40;99.90
3300;DHT22;1662;49.310;8.134;2023-08-20T02:11:51;24.40;99.90
3300;DHT22;1662;49.310;8.134;2023-08-20T02:14:17;24.40;99.90
3300;DHT22;1662;49.310;8.134;2023-08-20T02:16:43;24.30;99.90
3300;DHT22;1662;49.310;8.134;2023-08-20T02:19:11;24.30;99.90
3300;DHT22;1662;49.310;8.134;2023-08-20T02:21:37;24.30;99.90
3300;DHT22;1662;49.310;8.134;2023-08-20T02:24:04;24.30;99.90
3300;DHT22;1662;49.310;8.134;2023-08-20T02:26:30;24.30;99.90
3300;DHT22;1662;49.310;8.134;2023-08-20T02:28:56;24.20;99.90
3300;DHT22;1662;49.310;8.134;2023-08-20T02:31:21;24.20;99.90
3300;DHT22;1662;49.310;8.134;2023-08-20T02:33:49;24.20;99.90
3300;DHT22;1662;49.310;8.134;2023-08-20T02:36:17;24.20;99.90
3300;DHT22;1662;49.310;8.134;2023-08-20T02:38:44;24.10;99.90
3300;DHT22;1662;49.310;8.134;2023-08-20T02:41:10;24.10;99.90
3300;DHT22;1662;49.310;8.134;2023-08-20T02:43:37;24.10;99.90
3300;DHT22;1662;49.310;8.134;2023-08-20T02:46:03;24.10;99.90
3300;DHT22;1662;49.310;8.134;2023-08-20T02:48:29;24.10;99.90
3300;DHT22;1662;49.310;8.134;2023-08-20T02:50:55;24.10;99.90
3300;DHT22;1662;49.310;8.134;2023-08-20T02:53:22;24.00;99.90
3300;DHT22;1662;49.310;8.134;2023-08-20T02:55:48;24.00;99.90
3300;DHT22;1662;49.310;8.134;2023-08-20T02:58:14;24.00;99.90
3300;DHT22;1662;49.310;8.134;2023-08-20T03:00:41;24.00;99.90
3300;DHT22;1662;49.310;8.134;2023-08-20T03:03:07;24.00;99.90
3300;DHT22;1662;49.310;8.134;2023-08-20T03:05:34;24.00;99.90
3300;DHT22;1662;49.310;8.134;2023-08-20T03:08:00;24.00;99.90
3300;DHT22;1662;49.310;8.134;2023-08-20T03:10:27;23.90;99.90
3300;DHT22;1662;49.310;8.134;2023-08-20T03:12:52;23.90;99.90
3300;DHT22;1662;49.310;8.134;2023-08-20T03:15:18;23.90;99.90
3300;DHT22;1662;49.310;8.134;2023-08-20T03:17:44;23.90;99.90
3300;DHT22;1662;49.310;8.134;2023-08-20T03:20:10;23.90;99.90
3300;DHT22;1662;49.310;8.134;2023-08-20T03:22:37;23.90;99.90
3300;DHT22;1662;49.310;8.134;2023-08-20T03:25:03;23.90;99.90
3300;DHT22;1662;49.310;8.134;2023-08-20T03:27:29;23.90;99.90
3300;DHT22;1662;49.310;8.134;2023-08-20T03:29:55;23.80;99.90
3300;DHT22;1662;49.310;8.134;2023-08-20T03:32:20;23.90;99.90
3300;DHT22;1662;49.310;8.134;2023-08-20T03:34:46;23.90;99.90
3300;DHT22;1662;49.310;8.134;2023-08-20T03:37:12;23.80;99.90
3300;DHT22;1662;49.310;8.134;2023-08-20T03:39:37;23.80;99.90
3300;DHT22;1662;49.310;8.134;2023-08-20T03:42:03;23.80;99.90
3300;DHT22;1662;49.310;8.134;2023-08-20T03:44:31;23.80;99.90
3300;DHT22;1662;49.310;8.134;2023-08-20T03:46:56;23.80;99.90
3300;DHT22;1662;49.310;8.134;2023-08-20T03:49:24;23.80;99.90
3300;DHT22;1662;49.310;8.134;2023-08-20T03:51:50;23.80;99.90
3300;DHT22;1662;49.310;8.134;2023-08-20T03:54:16;23.80;99.90
3300;DHT22;1662;49.310;8.134;2023-08-20T03:56:44;23.80;99.90
3300;DHT22;1662;49.310;8.134;2023-08-20T03:59:12;23.80;99.90
3300;DHT22;1662;49.310;8.134;2023-08-20T04:01:40;23.80;99.90
3300;DHT22;1662;49.310;8.134;2023-08-20T04:04:05;23.80;99.90
3300;DHT22;1662;49.310;8.134;2023-08-20T04:06:31;23.80;99.90
3300;DHT22;1662;49.310;8.134;2023-08-20T04:08:56;23.80;99.90
3300;DHT22;1662;49.310;8.134;2023-08-20T04:11:22;23.80;99.90
3300;DHT22;1662;49.310;8.134;2023-08-20T04:13:48;23.80;99.90
3300;DHT22;1662;49.310;8.134;2023-08-20T04:16:13;23.70;99.90
3300;DHT22;1662;49.310;8.134;2023-08-20T04:18:42;23.70;99.90
3300;DHT22;1662;49.310;8.134;2023-08-20T04:21:08;23.70;99.90
3300;DHT22;1662;49.310;8.134;2023-08-20T04:23:33;23.70;99.90
3300;DHT22;1662;49.310;8.134;2023-08-20T04:25:59;23.70;99.90
3300;DHT22;1662;49.310;8.134;2023-08-20T04:28:24;23.60;99.90
3300;DHT22;1662;49.310;8.134;2023-08-20T04:30:53;23.70;99.90
3300;DHT22;1662;49.310;8.134;2023-08-20T04:33:22;23.60;99.90
3300;DHT22;1662;49.310;8.134;2023-08-20T04:35:53;23.60;99.90
3300;DHT22;1662;49.310;8.134;2023-08-20T04:38:19;23.60;99.90
3300;DHT22;1662;49.310;8.134;2023-08-20T04:40:48;23.60;99.90
3300;DHT22;1662;49.310;8.134;2023-08-20T04:43:15;23.60;99.90
3300;DHT22;1662;49.310;8.134;2023-08-20T04:45:43;23.60;99.90
3300;DHT22;1662;49.310;8.134;2023-08-20T04:48:08;23.60;99.90
3300;DHT22;1662;49.310;8.134;2023-08-20T04:50:34;23.70;99.90
3300;DHT22;1662;49.310;8.134;2023-08-20T04:53:00;23.70;99.90
3300;DHT22;1662;49.310;8.134;2023-08-20T04:55:26;23.70;99.90
3300;DHT22;1662;49.310;8.134;2023-08-20T04:57:52;23.70;99.90
3300;DHT22;1662;49.310;8.134;2023-08-20T05:00:18;23.70;99.90
3300;DHT22;1662;49.310;8.134;2023-08-20T05:02:43;23.80;99.90
3300;DHT22;1662;49.310;8.134;2023-08-20T05:05:10;23.80;99.90
3300;DHT22;1662;49.310;8.134;2023-08-20T05:07:36;23.80;99.90
3300;DHT22;1662;49.310;8.134;2023-08-20T05:10:02;23.80;99.90
3300;DHT22;1662;49.310;8.134;2023-08-20T05:12:28;23.80;99.90
3300;DHT22;1662;49.310;8.134;2023-08-20T05:14:53;23.80;99.90
3300;DHT22;1662;49.310;8.134;2023-08-20T05:17:19;23.80;99.90
3300;DHT22;1662;49.310;8.134;2023-08-20T05:19:45;23.80;99.90
3300;DHT22;1662;49.310;8.134;2023-08-20T05:22:11;23.80;99.90
3300;DHT22;1662;49.310;8.134;2023-08-20T05:24:37;23.90;99.90
3300;DHT22;1662;49.310;8.134;2023-08-20T05:27:23;23.90;99.90
3300;DHT22;1662;49.310;8.134;2023-08-20T05:29:49;23.90;99.90
3300;DHT22;1662;49.310;8.134;2023-08-20T05:32:14;23.90;99.90
3300;DHT22;1662;49.310;8.134;2023-08-20T05:34:41;23.90;99.90
3300;DHT22;1662;49.310;8.134;2023-08-20T05:37:07;24.00;99.90
3300;DHT22;1662;49.310;8.134;2023-08-20T05:39:43;24.00;99.90
3300;DHT22;1662;49.310;8.134;2023-08-20T05:42:09;24.00;99.90
3300;DHT22;1662;49.310;8.134;2023-08-20T05:44:35;24.00;99.90
3300;DHT22;1662;49.310;8.134;2023-08-20T05:47:00;24.00;99.90
3300;DHT22;1662;49.310;8.134;2023-08-20T05:49:26;24.00;99.90
3300;DHT22;1662;49.310;8.134;2023-08-20T05:51:54;24.10;99.90
3300;DHT22;1662;49.310;8.134;2023-08-20T05:54:20;24.10;99.90
3300;DHT22;1662;49.310;8.134;2023-08-20T05:56:46;24.10;99.90
3300;DHT22;1662;49.310;8.134;2023-08-20T05:59:11;24.20;99.90
3300;DHT22;1662;49.310;8.134;2023-08-20T06:01:37;24.10;99.90
3300;DHT22;1662;49.310;8.134;2023-08-20T06:04:03;24.20;99.90
3300;DHT22;1662;49.310;8.134;2023-08-20T06:06:28;24.20;99.90
3300;DHT22;1662;49.310;8.134;2023-08-20T06:08:54;24.20;99.90
3300;DHT22;1662;49.310;8.134;2023-08-20T06:11:20;24.20;99.90
3300;DHT22;1662;49.310;8.134;2023-08-20T06:13:46;24.20;99.90
3300;DHT22;1662;49.310;8.134;2023-08-20T06:16:12;24.20;99.90
3300;DHT22;1662;49.310;8.134;2023-08-20T06:18:38;24.20;99.90
3300;DHT22;1662;49.310;8.134;2023-08-20T06:21:03;24.20;99.90
3300;DHT22;1662;49.310;8.134;2023-08-20T06:23:29;24.10;99.90
3300;DHT22;1662;49.310;8.134;2023-08-20T06:25:55;24.10;99.90
3300;DHT22;1662;49.310;8.134;2023-08-20T06:28:20;24.00;99.90
3300;DHT22;1662;49.310;8.134;2023-08-20T06:30:46;24.00;99.90
3300;DHT22;1662;49.310;8.134;2023-08-20T06:33:14;24.00;99.90
3300;DHT22;1662;49.310;8.134;2023-08-20T06:35:40;24.00;99.90
3300;DHT22;1662;49.310;8.134;2023-08-20T06:38:07;24.00;99.90
3300;DHT22;1662;49.310;8.134;2023-08-20T06:40:33;24.00;99.90
3300;DHT22;1662;49.310;8.134;2023-08-20T06:42:58;24.00;99.90
3300;DHT22;1662;49.310;8.134;2023-08-20T06:45:24;23.90;99.90
3300;DHT22;1662;49.310;8.134;2023-08-20T06:47:49;24.00;99.90
3300;DHT22;1662;49.310;8.134;2023-08-20T06:50:15;23.90;99.90
3300;DHT22;1662;49.310;8.134;2023-08-20T06:52:43;24.00;99.90
3300;DHT22;1662;49.310;8.134;2023-08-20T06:55:09;23.90;99.90
3300;DHT22;1662;49.310;8.134;2023-08-20T06:57:34;24.00;99.90
3300;DHT22;1662;49.310;8.134;2023-08-20T07:00:00;24.00;99.90
3300;DHT22;1662;49.310;8.134;2023-08-20T07:02:25;24.10;99.90
3300;DHT22;1662;49.310;8.134;2023-08-20T07:04:51;24.10;99.90
3300;DHT22;1662;49.310;8.134;2023-08-20T07:07:17;24.20;99.90
3300;DHT22;1662;49.310;8.134;2023-08-20T07:09:42;24.30;99.90
3300;DHT22;1662;49.310;8.134;2023-08-20T07:12:08;24.50;99.90
3300;DHT22;1662;49.310;8.134;2023-08-20T07:14:34;24.60;99.90
3300;DHT22;1662;49.310;8.134;2023-08-20T07:17:01;24.70;99.90
3300;DHT22;1662;49.310;8.134;2023-08-20T07:19:28;24.70;99.90
3300;DHT22;1662;49.310;8.134;2023-08-20T07:21:54;24.90;99.90
3300;DHT22;1662;49.310;8.134;2023-08-20T07:24:22;24.90;99.90
3300;DHT22;1662;49.310;8.134;2023-08-20T07:26:51;25.10;99.90
3300;DHT22;1662;49.310;8.134;2023-08-20T07:29:17;25.10;99.90
3300;DHT22;1662;49.310;8.134;2023-08-20T07:31:42;25.20;99.90
3300;DHT22;1662;49.310;8.134;2023-08-20T07:34:08;25.30;99.90
3300;DHT22;1662;49.310;8.134;2023-08-20T07:36:36;25.40;99.90
3300;DHT22;1662;49.310;8.134;2023-08-20T07:39:02;25.40;99.90
3300;DHT22;1662;49.310;8.134;2023-08-20T07:41:28;25.50;99.90
3300;DHT22;1662;49.310;8.134;2023-08-20T07:43:54;25.60;99.90
3300;DHT22;1662;49.310;8.134;2023-08-20T07:46:19;25.60;99.90
3300;DHT22;1662;49.310;8.134;2023-08-20T07:48:47;25.70;99.90
3300;DHT22;1662;49.310;8.134;2023-08-20T07:51:12;25.80;99.90
3300;DHT22;1662;49.310;8.134;2023-08-20T07:53:38;25.80;99.90
3300;DHT22;1662;49.310;8.134;2023-08-20T07:56:04;25.90;99.90
3300;DHT22;1662;49.310;8.134;2023-08-20T07:58:29;25.90;99.90
3300;DHT22;1662;49.310;8.134;2023-08-20T08:00:56;26.00;99.90
3300;DHT22;1662;49.310;8.134;2023-08-20T08:03:21;26.00;99.90
3300;DHT22;1662;49.310;8.134;2023-08-20T08:05:48;26.00;99.90
3300;DHT22;1662;49.310;8.134;2023-08-20T08:08:15;26.10;99.90
3300;DHT22;1662;49.310;8.134;2023-08-20T08:10:41;26.20;99.90
3300;DHT22;1662;49.310;8.134;2023-08-20T08:13:10;26.30;99.90
3300;DHT22;1662;49.310;8.134;2023-08-20T08:15:35;26.30;99.90
3300;DHT22;1662;49.310;8.134;2023-08-20T08:18:01;26.40;99.90
3300;DHT22;1662;49.310;8.134;2023-08-20T08:20:26;26.50;99.90
3300;DHT22;1662;49.310;8.134;2023-08-20T08:22:52;26.50;99.90
3300;DHT22;1662;49.310;8.134;2023-08-20T08:25:17;26.70;99.90
3300;DHT22;1662;49.310;8.134;2023-08-20T08:27:44;26.70;99.90
3300;DHT22;1662;49.310;8.134;2023-08-20T08:30:11;26.80;99.90
3300;DHT22;1662;49.310;8.134;2023-08-20T08:32:37;26.90;99.90
3300;DHT22;1662;49.310;8.134;2023-08-20T08:35:02;27.00;99.90
3300;DHT22;1662;49.310;8.134;2023-08-20T08:37:30;27.10;99.90
3300;DHT22;1662;49.310;8.134;2023-08-20T08:39:56;27.10;99.90
3300;DHT22;1662;49.310;8.134;2023-08-20T08:42:23;27.20;99.90
3300;DHT22;1662;49.310;8.134;2023-08-20T08:44:50;27.20;99.90
3300;DHT22;1662;49.310;8.134;2023-08-20T08:47:16;27.30;99.90
3300;DHT22;1662;49.310;8.134;2023-08-20T08:49:44;27.40;99.90
3300;DHT22;1662;49.310;8.134;2023-08-20T08:52:14;27.40;99.90
3300;DHT22;1662;49.310;8.134;2023-08-20T08:54:40;27.50;99.90
3300;DHT22;1662;49.310;8.134;2023-08-20T08:57:05;27.70;99.90
3300;DHT22;1662;49.310;8.134;2023-08-20T08:59:31;27.70;99.90
3300;DHT22;1662;49.310;8.134;2023-08-20T09:01:57;27.80;99.90
3300;DHT22;1662;49.310;8.134;2023-08-20T09:04:23;27.80;99.90
3300;DHT22;1662;49.310;8.134;2023-08-20T09:06:51;27.90;99.90
3300;DHT22;1662;49.310;8.134;2023-08-20T09:09:18;28.00;99.90
3300;DHT22;1662;49.310;8.134;2023-08-20T09:11:44;28.10;99.90
3300;DHT22;1662;49.310;8.134;2023-08-20T09:14:23;28.20;99.90
3300;DHT22;1662;49.310;8.134;2023-08-20T09:17:00;28.30;99.90
3300;DHT22;1662;49.310;8.134;2023-08-20T09:19:31;28.40;99.90
3300;DHT22;1662;49.310;8.134;2023-08-20T09:22:00;28.50;99.90
3300;DHT22;1662;49.310;8.134;2023-08-20T09:24:32;28.50;99.90
3300;DHT22;1662;49.310;8.134;2023-08-20T09:26:58;28.70;99.90
3300;DHT22;1662;49.310;8.134;2023-08-20T09:29:27;28.70;99.90
3300;DHT22;1662;49.310;8.134;2023-08-20T09:32:00;28.80;99.90
3300;DHT22;1662;49.310;8.134;2023-08-20T09:34:36;28.90;99.90
3300;DHT22;1662;49.310;8.134;2023-08-20T09:37:03;29.00;99.90
3300;DHT22;1662;49.310;8.134;2023-08-20T09:39:30;29.00;99.90
3300;DHT22;1662;49.310;8.134;2023-08-20T09:41:57;29.20;99.90
3300;DHT22;1662;49.310;8.134;2023-08-20T09:44:24;29.30;99.90
3300;DHT22;1662;49.310;8.134;2023-08-20T09:46:50;29.30;99.90
3300;DHT22;1662;49.310;8.134;2023-08-20T09:49:17;29.40;99.90
3300;DHT22;1662;49.310;8.134;2023-08-20T09:51:47;29.50;99.90
3300;DHT22;1662;49.310;8.134;2023-08-20T09:54:23;29.60;99.90
3300;DHT22;1662;49.310;8.134;2023-08-20T09:56:54;29.70;99.90
3300;DHT22;1662;49.310;8.134;2023-08-20T09:59:24;29.80;99.90
3300;DHT22;1662;49.310;8.134;2023-08-20T10:01:50;29.80;99.90
3300;DHT22;1662;49.310;8.134;2023-08-20T10:04:17;29.80;99.90
3300;DHT22;1662;49.310;8.134;2023-08-20T10:06:44;29.80;99.90
3300;DHT22;1662;49.310;8.134;2023-08-20T10:09:10;29.90;99.90
3300;DHT22;1662;49.310;8.134;2023-08-20T10:11:36;30.00;99.90
3300;DHT22;1662;49.310;8.134;2023-08-20T10:14:03;30.10;99.90
3300;DHT22;1662;49.310;8.134;2023-08-20T10:16:28;30.20;99.90
3300;DHT22;1662;49.310;8.134;2023-08-20T10:18:54;30.20;99.90
3300;DHT22;1662;49.310;8.134;2023-08-20T10:21:24;30.30;99.90
3300;DHT22;1662;49.310;8.134;2023-08-20T10:23:50;30.40;99.90
3300;DHT22;1662;49.310;8.134;2023-08-20T10:26:16;30.50;99.90
3300;DHT22;1662;49.310;8.134;2023-08-20T10:28:47;30.50;99.90
3300;DHT22;1662;49.310;8.134;2023-08-20T10:31:13;30.60;99.90
3300;DHT22;1662;49.310;8.134;2023-08-20T10:36:19;30.80;99.90
3300;DHT22;1662;49.310;8.134;2023-08-20T10:38:49;30.90;99.90
3300;DHT22;1662;49.310;8.134;2023-08-20T10:41:15;31.00;99.90
3300;DHT22;1662;49.310;8.134;2023-08-20T10:43:47;31.10;99.90
3300;DHT22;1662;49.310;8.134;2023-08-20T10:46:21;31.20;99.90
3300;DHT22;1662;49.310;8.134;2023-08-20T10:48:56;31.20;99.90
3300;DHT22;1662;49.310;8.134;2023-08-20T10:51:26;31.30;99.90
3300;DHT22;1662;49.310;8.134;2023-08-20T11:01:42;31.80;99.90
3300;DHT22;1662;49.310;8.134;2023-08-20T11:04:09;31.90;99.90
3300;DHT22;1662;49.310;8.134;2023-08-20T11:06:34;32.00;99.90
3300;DHT22;1662;49.310;8.134;2023-08-20T11:09:01;32.10;99.90
3300;DHT22;1662;49.310;8.134;2023-08-20T11:11:29;32.20;99.90
3300;DHT22;1662;49.310;8.134;2023-08-20T11:13:55;32.30;99.90
3300;DHT22;1662;49.310;8.134;2023-08-20T11:16:21;32.40;99.90
3300;DHT22;1662;49.310;8.134;2023-08-20T11:18:47;32.40;99.90
3300;DHT22;1662;49.310;8.134;2023-08-20T11:21:13;32.50;99.90
3300;DHT22;1662;49.310;8.134;2023-08-20T11:23:41;32.60;99.90
3300;DHT22;1662;49.310;8.134;2023-08-20T11:26:08;32.70;99.90
3300;DHT22;1662;49.310;8.134;2023-08-20T11:28:34;32.80;99.90
3300;DHT22;1662;49.310;8.134;2023-08-20T11:31:01;32.90;99.90
3300;DHT22;1662;49.310;8.134;2023-08-20T11:33:29;33.00;99.90
3300;DHT22;1662;49.310;8.134;2023-08-20T11:35:55;33.10;99.90
3300;DHT22;1662;49.310;8.134;2023-08-20T11:38:23;33.20;99.90
3300;DHT22;1662;49.310;8.134;2023-08-20T11:40:50;33.30;99.90
3300;DHT22;1662;49.310;8.134;2023-08-20T11:43:15;33.40;99.90
3300;DHT22;1662;49.310;8.134;2023-08-20T11:45:46;33.50;99.90
3300;DHT22;1662;49.310;8.134;2023-08-20T11:48:14;33.60;99.90
3300;DHT22;1662;49.310;8.134;2023-08-20T11:50:40;33.70;99.90
3300;DHT22;1662;49.310;8.134;2023-08-20T11:53:07;33.80;99.90
3300;DHT22;1662;49.310;8.134;2023-08-20T11:55:33;33.90;99.90
3300;DHT22;1662;49.310;8.134;2023-08-20T11:57:59;34.10;99.90
3300;DHT22;1662;49.310;8.134;2023-08-20T12:00:31;34.20;99.90
3300;DHT22;1662;49.310;8.134;2023-08-20T12:02:57;34.30;99.90
3300;DHT22;1662;49.310;8.134;2023-08-20T12:05:29;34.30;99.90
3300;DHT22;1662;49.310;8.134;2023-08-20T12:07:59;34.20;99.90
3300;DHT22;1662;49.310;8.134;2023-08-20T12:10:30;34.10;99.90
3300;DHT22;1662;49.310;8.134;2023-08-20T12:12:56;34.10;99.90
3300;DHT22;1662;49.310;8.134;2023-08-20T12:15:23;34.10;99.90
3300;DHT22;1662;49.310;8.134;2023-08-20T12:18:03;34.20;99.90
3300;DHT22;1662;49.310;8.134;2023-08-20T12:20:35;34.40;99.90
3300;DHT22;1662;49.310;8.134;2023-08-20T12:23:06;34.60;99.90
3300;DHT22;1662;49.310;8.134;2023-08-20T12:25:33;34.70;99.90
3300;DHT22;1662;49.310;8.134;2023-08-20T12:28:03;34.80;99.90
3300;DHT22;1662;49.310;8.134;2023-08-20T12:30:31;34.90;99.90
3300;DHT22;1662;49.310;8.134;2023-08-20T12:32:57;35.00;99.90
3300;DHT22;1662;49.310;8.134;2023-08-20T12:35:22;35.10;99.90
3300;DHT22;1662;49.310;8.134;2023-08-20T12:37:48;35.10;99.90
3300;DHT22;1662;49.310;8.134;2023-08-20T12:40:14;35.20;99.90
3300;DHT22;1662;49.310;8.134;2023-08-20T12:42:39;35.30;99.90
3300;DHT22;1662;49.310;8.134;2023-08-20T12:45:08;35.40;99.90
3300;DHT22;1662;49.310;8.134;2023-08-20T12:47:35;35.50;99.90
3300;DHT22;1662;49.310;8.134;2023-08-20T12:50:01;35.60;99.90
3300;DHT22;1662;49.310;8.134;2023-08-20T12:52:29;35.70;99.90
3300;DHT22;1662;49.310;8.134;2023-08-20T12:54:55;35.80;99.90
3300;DHT22;1662;49.310;8.134;2023-08-20T12:57:21;35.80;99.90
3300;DHT22;1662;49.310;8.134;2023-08-20T12:59:46;35.90;99.90
3300;DHT22;1662;49.310;8.134;2023-08-20T13:02:14;35.90;99.90
3300;DHT22;1662;49.310;8.134;2023-08-20T13:04:41;36.00;99.90
3300;DHT22;1662;49.310;8.134;2023-08-20T13:07:07;36.10;99.90
3300;DHT22;1662;49.310;8.134;2023-08-20T13:09:33;36.10;98.60
3300;DHT22;1662;49.310;8.134;2023-08-20T13:12:03;36.20;99.90
3300;DHT22;1662;49.310;8.134;2023-08-20T13:14:31;36.30;99.60
3300;DHT22;1662;49.310;8.134;2023-08-20T13:16:57;36.40;99.90
3300;DHT22;1662;49.310;8.134;2023-08-20T13:19:22;36.40;99.90
3300;DHT22;1662;49.310;8.134;2023-08-20T13:21:50;36.40;98.40
3300;DHT22;1662;49.310;8.134;2023-08-20T13:24:16;36.50;98.10
3300;DHT22;1662;49.310;8.134;2023-08-20T13:26:41;36.60;98.50
3300;DHT22;1662;49.310;8.134;2023-08-20T13:29:07;36.60;99.30
3300;DHT22;1662;49.310;8.134;2023-08-20T13:31:32;36.40;98.40
3300;DHT22;1662;49.310;8.134;2023-08-20T13:33:58;36.40;98.80
3300;DHT22;1662;49.310;8.134;2023-08-20T13:36:24;36.40;98.40
3300;DHT22;1662;49.310;8.134;2023-08-20T13:38:49;36.40;98.20
3300;DHT22;1662;49.310;8.134;2023-08-20T13:41:15;36.30;96.80
3300;DHT22;1662;49.310;8.134;2023-08-20T13:43:43;36.20;97.20
3300;DHT22;1662;49.310;8.134;2023-08-20T13:46:08;35.90;97.80
3300;DHT22;1662;49.310;8.134;2023-08-20T13:48:34;35.70;96.50
3300;DHT22;1662;49.310;8.134;2023-08-20T13:51:02;35.60;97.20
3300;DHT22;1662;49.310;8.134;2023-08-20T13:53:28;35.80;97.10
3300;DHT22;1662;49.310;8.134;2023-08-20T13:55:54;36.10;97.60
3300;DHT22;1662;49.310;8.134;2023-08-20T13:58:21;36.30;98.10
3300;DHT22;1662;49.310;8.134;2023-08-20T14:00:49;36.50;97.00
3300;DHT22;1662;49.310;8.134;2023-08-20T14:03:15;36.70;96.20
3300;DHT22;1662;49.310;8.134;2023-08-20T14:05:40;36.90;96.30
3300;DHT22;1662;49.310;8.134;2023-08-20T14:08:08;37.10;96.00
3300;DHT22;1662;49.310;8.134;2023-08-20T14:10:35;37.20;96.60
3300;DHT22;1662;49.310;8.134;2023-08-20T14:13:00;37.20;95.30
3300;DHT22;1662;49.310;8.134;2023-08-20T14:15:28;37.10;94.00
3300;DHT22;1662;49.310;8.134;2023-08-20T14:17:56;37.00;94.70
3300;DHT22;1662;49.310;8.134;2023-08-20T14:20:22;36.90;94.70
3300;DHT22;1662;49.310;8.134;2023-08-20T14:22:48;36.80;93.60
3300;DHT22;1662;49.310;8.134;2023-08-20T14:25:13;36.90;92.90
3300;DHT22;1662;49.310;8.134;2023-08-20T14:27:41;36.90;93.50
3300;DHT22;1662;49.310;8.134;2023-08-20T14:30:08;37.20;93.50
3300;DHT22;1662;49.310;8.134;2023-08-20T14:32:33;37.30;92.60
3300;DHT22;1662;49.310;8.134;2023-08-20T14:34:59;37.40;94.00
3300;DHT22;1662;49.310;8.134;2023-08-20T14:37:28;37.50;92.70
3300;DHT22;1662;49.310;8.134;2023-08-20T14:39:54;37.60;92.80
3300;DHT22;1662;49.310;8.134;2023-08-20T14:42:19;37.70;91.40
3300;DHT22;1662;49.310;8.134;2023-08-20T14:44:45;37.70;91.80
3300;DHT22;1662;49.310;8.134;2023-08-20T14:47:11;37.80;91.20
3300;DHT22;1662;49.310;8.134;2023-08-20T14:49:36;37.90;91.40
3300;DHT22;1662;49.310;8.134;2023-08-20T14:52:02;38.00;91.80
3300;DHT22;1662;49.310;8.134;2023-08-20T14:54:28;38.00;91.60
3300;DHT22;1662;49.310;8.134;2023-08-20T14:56:53;38.10;91.80
3300;DHT22;1662;49.310;8.134;2023-08-20T14:59:19;38.10;92.20
3300;DHT22;1662;49.310;8.134;2023-08-20T15:01:45;38.00;91.70
3300;DHT22;1662;49.310;8.134;2023-08-20T15:04:10;37.90;91.60
3300;DHT22;1662;49.310;8.134;2023-08-20T15:06:36;37.80;91.70
3300;DHT22;1662;49.310;8.134;2023-08-20T15:09:01;37.70;91.70
3300;DHT22;1662;49.310;8.134;2023-08-20T15:11:28;37.50;91.70
3300;DHT22;1662;49.310;8.134;2023-08-20T15:13:53;37.40;92.30
3300;DHT22;1662;49.310;8.134;2023-08-20T15:16:19;37.30;92.90
3300;DHT22;1662;49.310;8.134;2023-08-20T15:18:45;37.20;92.50
3300;DHT22;1662;49.310;8.134;2023-08-20T15:21:10;37.20;92.50
3300;DHT22;1662;49.310;8.134;2023-08-20T15:23:36;37.20;92.50
3300;DHT22;1662;49.310;8.134;2023-08-20T15:26:03;37.20;92.70
3300;DHT22;1662;49.310;8.134;2023-08-20T15:28:29;37.20;92.90
3300;DHT22;1662;49.310;8.134;2023-08-20T15:30:57;37.20;93.30
3300;DHT22;1662;49.310;8.134;2023-08-20T15:33:23;37.40;93.00
3300;DHT22;1662;49.310;8.134;2023-08-20T15:35:49;37.50;92.90
3300;DHT22;1662;49.310;8.134;2023-08-20T15:38:14;37.70;92.60
3300;DHT22;1662;49.310;8.134;2023-08-20T15:40:41;37.80;92.50
3300;DHT22;1662;49.310;8.134;2023-08-20T15:43:06;37.70;92.00
3300;DHT22;1662;49.310;8.134;2023-08-20T15:45:32;37.80;92.40
3300;DHT22;1662;49.310;8.134;2023-08-20T15:47:58;37.80;92.80
3300;DHT22;1662;49.310;8.134;2023-08-20T15:50:23;37.70;92.70
3300;DHT22;1662;49.310;8.134;2023-08-20T15:52:49;37.70;92.30
3300;DHT22;1662;49.310;8.134;2023-08-20T15:55:15;37.70;92.50
3300;DHT22;1662;49.310;8.134;2023-08-20T15:57:41;37.60;92.70
3300;DHT22;1662;49.310;8.134;2023-08-20T16:00:07;37.60;92.70
3300;DHT22;1662;49.310;8.134;2023-08-20T16:02:44;37.50;92.90
3300;DHT22;1662;49.310;8.134;2023-08-20T16:05:09;37.50;93.20
3300;DHT22;1662;49.310;8.134;2023-08-20T16:07:36;37.50;92.80
3300;DHT22;1662;49.310;8.134;2023-08-20T16:10:02;37.40;92.90
3300;DHT22;1662;49.310;8.134;2023-08-20T16:12:29;37.40;92.70
3300;DHT22;1662;49.310;8.134;2023-08-20T16:14:55;37.40;92.90
3300;DHT22;1662;49.310;8.134;2023-08-20T16:17:21;37.40;93.40